sensor_id;sensor_type;location;lat;lon;timestamp;temperature;humidity
21678;DHT22;11000;50.360;7.582;2023-02-03T00:00:52;8.10;99.90
21678;DHT22;11000;50.360;7.582;2023-02-03T00:03:13;8.10;99.90
21678;DHT22;11000;50.360;7.582;2023-02-03T00:05:34;8.10;99.90
21678;DHT22;11000;50.360;7.582;2023-02-03T00:07:56;8.10;99.90
21678;DHT22;11000;50.360;7.582;2023-02-03T00:10:17;8.10;99.90
21678;DHT22;11000;50.360;7.582;2023-02-03T00:12:40;8.10;99.90
21678;DHT22;11000;50.360;7.582;2023-02-03T00:15:01;8.10;99.90
21678;DHT22;11000;50.360;7.582;2023-02-03T00:17:21;8.20;99.90
21678;DHT22;11000;50.360;7.582;2023-02-03T00:19:42;8.20;99.90
21678;DHT22;11000;50.360;7.582;2023-02-03T00:22:02;8.10;99.90
21678;DHT22;11000;50.360;7.582;2023-02-03T00:24:23;8.20;99.90
21678;DHT22;11000;50.360;7.582;2023-02-03T00:26:44;8.20;99.90
21678;DHT22;11000;50.360;7.582;2023-02-03T00:29:04;8.20;99.90
21678;DHT22;11000;50.360;7.582;2023-02-03T00:31:25;8.20;99.90
21678;DHT22;11000;50.360;7.582;2023-02-03T00:33:46;8.10;99.90
21678;DHT22;11000;50.360;7.582;2023-02-03T00:36:07;8.10;99.90
21678;DHT22;11000;50.360;7.582;2023-02-03T00:38:27;8.20;99.90
21678;DHT22;11000;50.360;7.582;2023-02-03T00:40:52;8.20;99.90
21678;DHT22;11000;50.360;7.582;2023-02-03T00:43:12;8.20;99.90
21678;DHT22;11000;50.360;7.582;2023-02-03T00:45:33;8.10;99.90
21678;DHT22;11000;50.360;7.582;2023-02-03T00:47:53;8.20;99.90
21678;DHT22;11000;50.360;7.582;2023-02-03T00:50:14;8.10;99.90
21678;DHT22;11000;50.360;7.582;2023-02-03T00:52:35;8.20;99.90
21678;DHT22;11000;50.360;7.582;2023-02-03T00:54:55;8.20;99.90
21678;DHT22;11000;50.360;7.582;2023-02-03T00:57:16;8.20;99.90
21678;DHT22;11000;50.360;7.582;2023-02-03T00:59:36;8.20;99.90
21678;DHT22;11000;50.360;7.582;2023-02-03T01:01:57;8.20;99.90
21678;DHT22;11000;50.360;7.582;2023-02-03T01:04:17;8.20;99.90
21678;DHT22;11000;50.360;7.582;2023-02-03T01:06:40;8.20;99.90
21678;DHT22;11000;50.360;7.582;2023-02-03T01:09:01;8.20;99.90
21678;DHT22;11000;50.360;7.582;2023-02-03T01:11:24;8.20;99.90
21678;DHT22;11000;50.360;7.582;2023-02-03T01:13:46;8.20;99.90
21678;DHT22;11000;50.360;7.582;2023-02-03T01:16:09;8.30;99.90
21678;DHT22;11000;50.360;7.582;2023-02-03T01:18:30;8.30;99.90
21678;DHT22;11000;50.360;7.582;2023-02-03T01:20:50;8.30;99.90
21678;DHT22;11000;50.360;7.582;2023-02-03T01:23:11;8.30;99.90
21678;DHT22;11000;50.360;7.582;2023-02-03T01:25:34;8.30;99.90
21678;DHT22;11000;50.360;7.582;2023-02-03T01:27:54;8.40;99.90
21678;DHT22;11000;50.360;7.582;2023-02-03T01:30:15;8.30;99.90
21678;DHT22;11000;50.360;7.582;2023-02-03T01:32:36;8.30;99.90
21678;DHT22;11000;50.360;7.582;2023-02-03T01:34:56;8.40;99.90
21678;DHT22;11000;50.360;7.582;2023-02-03T01:37:17;8.40;99.90
21678;DHT22;11000;50.360;7.582;2023-02-03T01:39:38;8.40;99.90
21678;DHT22;11000;50.360;7.582;2023-02-03T01:41:58;8.40;99.90
21678;DHT22;11000;50.360;7.582;2023-02-03T01:44:39;8.40;99.90
21678;DHT22;11000;50.360;7.582;2023-02-03T01:47:02;8.40;99.90
21678;DHT22;11000;50.360;7.582;2023-02-03T01:49:28;8.40;99.90
21678;DHT22;11000;50.360;7.582;2023-02-03T01:51:49;8.40;99.90
21678;DHT22;11000;50.360;7.582;2023-02-03T01:54:15;8.40;99.90
21678;DHT22;11000;50.360;7.582;2023-02-03T01:56:39;8.40;99.90
21678;DHT22;11000;50.360;7.582;2023-02-03T01:59:01;8.40;99.90
21678;DHT22;11000;50.360;7.582;2023-02-03T02:01:22;8.40;99.90
21678;DHT22;11000;50.360;7.582;2023-02-03T02:03:51;8.50;99.90
21678;DHT22;11000;50.360;7.582;2023-02-03T02:06:13;8.40;99.90
21678;DHT22;11000;50.360;7.582;2023-02-03T02:08:35;8.40;99.90
21678;DHT22;11000;50.360;7.582;2023-02-03T02:10:58;8.50;99.90
21678;DHT22;11000;50.360;7.582;2023-02-03T02:13:19;8.50;99.90
21678;DHT22;11000;50.360;7.582;2023-02-03T02:19:13;8.50;99.90
21678;DHT22;11000;50.360;7.582;2023-02-03T02:26:37;8.50;99.90
21678;DHT22;11000;50.360;7.582;2023-02-03T02:34:56;8.50;99.90
21678;DHT22;11000;50.360;7.582;2023-02-03T02:37:34;8.50;99.90
21678;DHT22;11000;50.360;7.582;2023-02-03T02:40:01;8.50;99.90
21678;DHT22;11000;50.360;7.582;2023-02-03T02:43:45;8.50;99.90
21678;DHT22;11000;50.360;7.582;2023-02-03T02:45:49;8.60;99.90
21678;DHT22;11000;50.360;7.582;2023-02-03T02:48:50;8.50;99.90
21678;DHT22;11000;50.360;7.582;2023-02-03T02:51:05;8.60;99.90
21678;DHT22;11000;50.360;7.582;2023-02-03T02:53:28;8.60;99.90
21678;DHT22;11000;50.360;7.582;2023-02-03T02:55:52;8.60;99.90
21678;DHT22;11000;50.360;7.582;2023-02-03T02:58:16;8.60;99.90
21678;DHT22;11000;50.360;7.582;2023-02-03T03:00:39;8.60;99.90
21678;DHT22;11000;50.360;7.582;2023-02-03T03:03:18;8.60;99.90
21678;DHT22;11000;50.360;7.582;2023-02-03T03:05:41;8.60;99.90
21678;DHT22;11000;50.360;7.582;2023-02-03T03:08:02;8.60;99.90
21678;DHT22;11000;50.360;7.582;2023-02-03T03:10:25;8.60;99.90
21678;DHT22;11000;50.360;7.582;2023-02-03T03:12:53;8.70;99.90
21678;DHT22;11000;50.360;7.582;2023-02-03T03:15:24;8.70;99.90
21678;DHT22;11000;50.360;7.582;2023-02-03T03:17:54;8.60;99.90
21678;DHT22;11000;50.360;7.582;2023-02-03T03:20:21;8.70;99.90
21678;DHT22;11000;50.360;7.582;2023-02-03T03:22:55;8.70;99.90
21678;DHT22;11000;50.360;7.582;2023-02-03T03:25:19;8.70;99.90
21678;DHT22;11000;50.360;7.582;2023-02-03T03:27:45;8.60;99.90
21678;DHT22;11000;50.360;7.582;2023-02-03T03:30:11;8.60;99.90
21678;DHT22;11000;50.360;7.582;2023-02-03T03:32:33;8.60;99.90
21678;DHT22;11000;50.360;7.582;2023-02-03T03:34:54;8.60;99.90
21678;DHT22;11000;50.360;7.582;2023-02-03T03:42:23;8.50;99.90
21678;DHT22;11000;50.360;7.582;2023-02-03T03:45:27;8.50;99.90
21678;DHT22;11000;50.360;7.582;2023-02-03T03:48:02;8.50;99.90
21678;DHT22;11000;50.360;7.582;2023-02-03T03:50:50;8.50;99.90
21678;DHT22;11000;50.360;7.582;2023-02-03T03:53:12;8.40;99.90
21678;DHT22;11000;50.360;7.582;2023-02-03T03:55:35;8.40;99.90
21678;DHT22;11000;50.360;7.582;2023-02-03T03:58:11;8.40;99.90
21678;DHT22;11000;50.360;7.582;2023-02-03T04:00:35;8.40;99.90
21678;DHT22;11000;50.360;7.582;2023-02-03T04:03:02;8.40;99.90
21678;DHT22;11000;50.360;7.582;2023-02-03T04:05:24;8.30;99.90
21678;DHT22;11000;50.360;7.582;2023-02-03T04:07:46;8.30;99.90
21678;DHT22;11000;50.360;7.582;2023-02-03T04:10:20;8.40;99.90
21678;DHT22;11000;50.360;7.582;2023-02-03T04:12:41;8.30;99.90
21678;DHT22;11000;50.360;7.582;2023-02-03T04:15:02;8.40;99.90
21678;DHT22;11000;50.360;7.582;2023-02-03T04:17:22;8.40;99.90
21678;DHT22;11000;50.360;7.582;2023-02-03T04:19:43;8.40;99.90
21678;DHT22;11000;50.360;7.582;2023-02-03T04:22:03;8.40;99.90
21678;DHT22;11000;50.360;7.582;2023-02-03T04:24:24;8.40;99.90
21678;DHT22;11000;50.360;7.582;2023-02-03T04:26:45;8.40;99.90
21678;DHT22;11000;50.360;7.582;2023-02-03T04:29:05;8.40;99.90
21678;DHT22;11000;50.360;7.582;2023-02-03T04:31:26;8.50;99.90
21678;DHT22;11000;50.360;7.582;2023-02-03T04:33:46;8.50;99.90
21678;DHT22;11000;50.360;7.582;2023-02-03T04:36:07;8.50;99.90
21678;DHT22;11000;50.360;7.582;2023-02-03T04:38:28;8.60;99.90
21678;DHT22;11000;50.360;7.582;2023-02-03T04:40:48;8.60;99.90
21678;DHT22;11000;50.360;7.582;2023-02-03T04:43:09;8.60;99.90
21678;DHT22;11000;50.360;7.582;2023-02-03T04:45:29;8.60;99.90
21678;DHT22;11000;50.360;7.582;2023-02-03T04:47:51;8.60;99.90
21678;DHT22;11000;50.360;7.582;2023-02-03T04:50:12;8.60;99.90
21678;DHT22;11000;50.360;7.582;2023-02-03T04:52:32;8.60;99.90
21678;DHT22;11000;50.360;7.582;2023-02-03T04:54:53;8.60;99.90
21678;DHT22;11000;50.360;7.582;2023-02-03T04:57:13;8.60;99.90
21678;DHT22;11000;50.360;7.582;2023-02-03T04:59:34;8.70;99.90
21678;DHT22;11000;50.360;7.582;2023-02-03T05:01:54;8.70;99.90
21678;DHT22;11000;50.360;7.582;2023-02-03T05:04:15;8.70;99.90
21678;DHT22;11000;50.360;7.582;2023-02-03T05:06:35;8.70;99.90
21678;DHT22;11000;50.360;7.582;2023-02-03T05:08:56;8.80;99.90
21678;DHT22;11000;50.360;7.582;2023-02-03T05:11:16;8.80;99.90
21678;DHT22;11000;50.360;7.582;2023-02-03T05:13:37;8.70;99.90
21678;DHT22;11000;50.360;7.582;2023-02-03T05:15:57;8.70;99.90
21678;DHT22;11000;50.360;7.582;2023-02-03T05:18:18;8.70;99.90
21678;DHT22;11000;50.360;7.582;2023-02-03T05:20:38;8.70;99.90
21678;DHT22;11000;50.360;7.582;2023-02-03T05:22:59;8.80;99.90
21678;DHT22;11000;50.360;7.582;2023-02-03T05:25:20;8.70;99.90
21678;DHT22;11000;50.360;7.582;2023-02-03T05:27:41;8.70;99.90
21678;DHT22;11000;50.360;7.582;2023-02-03T05:30:01;8.70;99.90
21678;DHT22;11000;50.360;7.582;2023-02-03T05:32:22;8.70;99.90
21678;DHT22;11000;50.360;7.582;2023-02-03T05:34:42;8.70;99.90
21678;DHT22;11000;50.360;7.582;2023-02-03T05:37:03;8.70;99.90
21678;DHT22;11000;50.360;7.582;2023-02-03T05:39:24;8.70;99.90
21678;DHT22;11000;50.360;7.582;2023-02-03T05:41:44;8.70;99.90
21678;DHT22;11000;50.360;7.582;2023-02-03T05:44:14;8.70;99.90
21678;DHT22;11000;50.360;7.582;2023-02-03T05:46:34;8.70;99.90
21678;DHT22;11000;50.360;7.582;2023-02-03T05:48:55;8.70;99.90
21678;DHT22;11000;50.360;7.582;2023-02-03T05:51:15;8.70;99.90
21678;DHT22;11000;50.360;7.582;2023-02-03T05:53:36;8.70;99.90
21678;DHT22;11000;50.360;7.582;2023-02-03T05:55:56;8.70;99.90
21678;DHT22;11000;50.360;7.582;2023-02-03T05:58:17;8.70;99.90
21678;DHT22;11000;50.360;7.582;2023-02-03T06:00:38;8.70;99.90
21678;DHT22;11000;50.360;7.582;2023-02-03T06:03:00;8.70;99.90
21678;DHT22;11000;50.360;7.582;2023-02-03T06:05:22;8.70;99.90
21678;DHT22;11000;50.360;7.582;2023-02-03T06:07:43;8.80;99.90
21678;DHT22;11000;50.360;7.582;2023-02-03T06:10:03;8.80;99.90
21678;DHT22;11000;50.360;7.582;2023-02-03T06:12:24;8.70;99.90
21678;DHT22;11000;50.360;7.582;2023-02-03T06:14:45;8.80;99.90
21678;DHT22;11000;50.360;7.582;2023-02-03T06:17:05;8.70;99.90
21678;DHT22;11000;50.360;7.582;2023-02-03T06:19:26;8.80;99.90
21678;DHT22;11000;50.360;7.582;2023-02-03T06:21:46;8.80;99.90
21678;DHT22;11000;50.360;7.582;2023-02-03T06:24:07;8.80;99.90
21678;DHT22;11000;50.360;7.582;2023-02-03T06:26:27;8.70;99.90
21678;DHT22;11000;50.360;7.582;2023-02-03T06:28:48;8.70;99.90
21678;DHT22;11000;50.360;7.582;2023-02-03T06:31:08;8.80;99.90
21678;DHT22;11000;50.360;7.582;2023-02-03T06:33:29;8.70;99.90
21678;DHT22;11000;50.360;7.582;2023-02-03T06:35:50;8.80;99.90
21678;DHT22;11000;50.360;7.582;2023-02-03T06:38:10;8.70;99.90
21678;DHT22;11000;50.360;7.582;2023-02-03T06:40:31;8.70;99.90
21678;DHT22;11000;50.360;7.582;2023-02-03T06:42:51;8.70;99.90
21678;DHT22;11000;50.360;7.582;2023-02-03T06:45:13;8.80;99.90
21678;DHT22;11000;50.360;7.582;2023-02-03T06:47:33;8.70;99.90
21678;DHT22;11000;50.360;7.582;2023-02-03T06:49:55;8.70;99.90
21678;DHT22;11000;50.360;7.582;2023-02-03T06:52:15;8.70;99.90
21678;DHT22;11000;50.360;7.582;2023-02-03T06:54:36;8.80;99.90
21678;DHT22;11000;50.360;7.582;2023-02-03T06:56:56;8.70;99.90
21678;DHT22;11000;50.360;7.582;2023-02-03T06:59:17;8.70;99.90
21678;DHT22;11000;50.360;7.582;2023-02-03T07:01:38;8.80;99.90
21678;DHT22;11000;50.360;7.582;2023-02-03T07:03:59;8.70;99.90
21678;DHT22;11000;50.360;7.582;2023-02-03T07:06:19;8.80;99.90
21678;DHT22;11000;50.360;7.582;2023-02-03T07:08:40;8.70;99.90
21678;DHT22;11000;50.360;7.582;2023-02-03T07:11:01;8.80;99.90
21678;DHT22;11000;50.360;7.582;2023-02-03T07:13:21;8.80;99.90
21678;DHT22;11000;50.360;7.582;2023-02-03T07:15:42;8.80;99.90
21678;DHT22;11000;50.360;7.582;2023-02-03T07:18:02;8.70;99.90
21678;DHT22;11000;50.360;7.582;2023-02-03T07:20:23;8.80;99.90
21678;DHT22;11000;50.360;7.582;2023-02-03T07:22:44;8.70;99.90
21678;DHT22;11000;50.360;7.582;2023-02-03T07:25:05;8.80;99.90
21678;DHT22;11000;50.360;7.582;2023-02-03T07:27:26;8.70;99.90
21678;DHT22;11000;50.360;7.582;2023-02-03T07:29:47;8.80;99.90
21678;DHT22;11000;50.360;7.582;2023-02-03T07:32:08;8.80;99.90
21678;DHT22;11000;50.360;7.582;2023-02-03T07:34:29;8.80;99.90
21678;DHT22;11000;50.360;7.582;2023-02-03T07:36:49;8.80;99.90
21678;DHT22;11000;50.360;7.582;2023-02-03T07:39:10;8.80;99.90
21678;DHT22;11000;50.360;7.582;2023-02-03T07:41:30;8.90;99.90
21678;DHT22;11000;50.360;7.582;2023-02-03T07:43:51;8.80;99.90
21678;DHT22;11000;50.360;7.582;2023-02-03T07:46:12;8.80;99.90
21678;DHT22;11000;50.360;7.582;2023-02-03T07:48:32;8.90;99.90
21678;DHT22;11000;50.360;7.582;2023-02-03T07:50:53;8.90;99.90
21678;DHT22;11000;50.360;7.582;2023-02-03T07:53:13;8.90;99.90
21678;DHT22;11000;50.360;7.582;2023-02-03T07:55:37;8.90;99.90
21678;DHT22;11000;50.360;7.582;2023-02-03T07:57:58;8.90;99.90
21678;DHT22;11000;50.360;7.582;2023-02-03T08:00:19;8.90;99.90
21678;DHT22;11000;50.360;7.582;2023-02-03T08:02:41;9.00;99.90
21678;DHT22;11000;50.360;7.582;2023-02-03T08:05:02;9.00;99.90
21678;DHT22;11000;50.360;7.582;2023-02-03T08:07:23;9.00;99.90
21678;DHT22;11000;50.360;7.582;2023-02-03T08:09:43;9.10;99.90
21678;DHT22;11000;50.360;7.582;2023-02-03T08:12:04;9.10;99.90
21678;DHT22;11000;50.360;7.582;2023-02-03T08:14:24;9.10;99.90
21678;DHT22;11000;50.360;7.582;2023-02-03T08:16:45;9.20;99.90
21678;DHT22;11000;50.360;7.582;2023-02-03T08:19:05;9.20;99.90
21678;DHT22;11000;50.360;7.582;2023-02-03T08:21:26;9.20;99.90
21678;DHT22;11000;50.360;7.582;2023-02-03T08:23:46;9.20;99.90
21678;DHT22;11000;50.360;7.582;2023-02-03T08:26:07;9.20;99.90
21678;DHT22;11000;50.360;7.582;2023-02-03T08:28:27;9.20;99.90
21678;DHT22;11000;50.360;7.582;2023-02-03T08:30:48;9.20;99.90
21678;DHT22;11000;50.360;7.582;2023-02-03T08:33:08;9.20;99.90
21678;DHT22;11000;50.360;7.582;2023-02-03T08:35:29;9.30;99.90
21678;DHT22;11000;50.360;7.582;2023-02-03T08:37:49;9.30;99.90
21678;DHT22;11000;50.360;7.582;2023-02-03T08:40:11;9.30;99.90
21678;DHT22;11000;50.360;7.582;2023-02-03T08:42:31;9.30;99.90
21678;DHT22;11000;50.360;7.582;2023-02-03T08:44:52;9.30;99.90
21678;DHT22;11000;50.360;7.582;2023-02-03T08:47:12;9.40;99.90
21678;DHT22;11000;50.360;7.582;2023-02-03T08:49:33;9.40;99.90
21678;DHT22;11000;50.360;7.582;2023-02-03T08:51:56;9.40;99.90
21678;DHT22;11000;50.360;7.582;2023-02-03T08:54:17;9.40;99.90
21678;DHT22;11000;50.360;7.582;2023-02-03T08:56:37;9.40;99.90
21678;DHT22;11000;50.360;7.582;2023-02-03T08:58:58;9.50;99.90
21678;DHT22;11000;50.360;7.582;2023-02-03T09:01:20;9.50;99.90
21678;DHT22;11000;50.360;7.582;2023-02-03T09:03:40;9.50;99.90
21678;DHT22;11000;50.360;7.582;2023-02-03T09:06:01;9.60;99.90
21678;DHT22;11000;50.360;7.582;2023-02-03T09:08:22;9.70;99.90
21678;DHT22;11000;50.360;7.582;2023-02-03T09:10:42;9.80;99.90
21678;DHT22;11000;50.360;7.582;2023-02-03T09:13:03;9.80;99.90
21678;DHT22;11000;50.360;7.582;2023-02-03T09:15:23;9.90;99.90
21678;DHT22;11000;50.360;7.582;2023-02-03T09:17:44;9.90;99.90
21678;DHT22;11000;50.360;7.582;2023-02-03T09:20:05;10.00;99.90
21678;DHT22;11000;50.360;7.582;2023-02-03T09:22:26;10.10;99.90
21678;DHT22;11000;50.360;7.582;2023-02-03T09:24:46;10.10;99.90
21678;DHT22;11000;50.360;7.582;2023-02-03T09:27:09;10.20;99.90
21678;DHT22;11000;50.360;7.582;2023-02-03T09:29:30;10.20;99.90
21678;DHT22;11000;50.360;7.582;2023-02-03T09:31:50;10.20;99.90
21678;DHT22;11000;50.360;7.582;2023-02-03T09:34:12;10.30;99.90
21678;DHT22;11000;50.360;7.582;2023-02-03T09:36:32;10.30;99.90
21678;DHT22;11000;50.360;7.582;2023-02-03T09:38:53;10.40;99.90
21678;DHT22;11000;50.360;7.582;2023-02-03T09:41:30;10.40;99.90
21678;DHT22;11000;50.360;7.582;2023-02-03T09:44:03;10.40;99.90
21678;DHT22;11000;50.360;7.582;2023-02-03T09:46:31;10.40;99.90
21678;DHT22;11000;50.360;7.582;2023-02-03T09:48:56;10.40;99.90
21678;DHT22;11000;50.360;7.582;2023-02-03T09:51:30;10.40;99.90
21678;DHT22;11000;50.360;7.582;2023-02-03T09:54:12;10.40;99.90
21678;DHT22;11000;50.360;7.582;2023-02-03T09:56:35;10.40;99.90
21678;DHT22;11000;50.360;7.582;2023-02-03T09:58:58;10.40;99.90
21678;DHT22;11000;50.360;7.582;2023-02-03T10:01:19;10.40;99.90
21678;DHT22;11000;50.360;7.582;2023-02-03T10:04:06;10.30;99.90
21678;DHT22;11000;50.360;7.582;2023-02-03T10:06:38;10.40;99.90
21678;DHT22;11000;50.360;7.582;2023-02-03T10:09:29;10.40;99.90
21678;DHT22;11000;50.360;7.582;2023-02-03T10:12:21;10.40;99.90
21678;DHT22;11000;50.360;7.582;2023-02-03T10:17:40;10.50;99.90
21678;DHT22;11000;50.360;7.582;2023-02-03T10:22:32;10.50;99.90
21678;DHT22;11000;50.360;7.582;2023-02-03T10:25:03;10.50;99.90
21678;DHT22;11000;50.360;7.582;2023-02-03T10:27:25;10.50;99.90
21678;DHT22;11000;50.360;7.582;2023-02-03T10:32:38;10.50;99.90
21678;DHT22;11000;50.360;7.582;2023-02-03T10:34:59;10.50;99.90
21678;DHT22;11000;50.360;7.582;2023-02-03T10:39:49;10.50;99.90
21678;DHT22;11000;50.360;7.582;2023-02-03T10:42:11;10.50;99.90
21678;DHT22;11000;50.360;7.582;2023-02-03T10:47:19;10.40;99.90
21678;DHT22;11000;50.360;7.582;2023-02-03T10:49:41;10.40;99.90
21678;DHT22;11000;50.360;7.582;2023-02-03T10:52:02;10.40;99.90
21678;DHT22;11000;50.360;7.582;2023-02-03T10:54:34;10.40;99.90
21678;DHT22;11000;50.360;7.582;2023-02-03T10:57:00;10.40;99.90
21678;DHT22;11000;50.360;7.582;2023-02-03T10:59:29;10.40;99.90
21678;DHT22;11000;50.360;7.582;2023-02-03T11:01:50;10.30;99.90
21678;DHT22;11000;50.360;7.582;2023-02-03T11:04:27;10.30;99.90
21678;DHT22;11000;50.360;7.582;2023-02-03T11:06:56;10.30;99.90
21678;DHT22;11000;50.360;7.582;2023-02-03T11:09:28;10.30;99.90
21678;DHT22;11000;50.360;7.582;2023-02-03T11:14:39;10.20;99.90
21678;DHT22;11000;50.360;7.582;2023-02-03T11:17:06;10.10;99.90
21678;DHT22;11000;50.360;7.582;2023-02-03T11:19:27;10.00;99.90
21678;DHT22;11000;50.360;7.582;2023-02-03T11:21:52;9.90;99.90
21678;DHT22;11000;50.360;7.582;2023-02-03T11:24:28;9.90;99.90
21678;DHT22;11000;50.360;7.582;2023-02-03T11:26:55;9.90;99.90
21678;DHT22;11000;50.360;7.582;2023-02-03T11:29:17;9.90;99.90
21678;DHT22;11000;50.360;7.582;2023-02-03T11:31:46;10.00;99.90
21678;DHT22;11000;50.360;7.582;2023-02-03T11:34:29;9.90;99.90
21678;DHT22;11000;50.360;7.582;2023-02-03T11:36:50;10.00;99.90
21678;DHT22;11000;50.360;7.582;2023-02-03T11:41:38;10.10;99.90
21678;DHT22;11000;50.360;7.582;2023-02-03T11:44:09;10.10;99.90
21678;DHT22;11000;50.360;7.582;2023-02-03T11:46:36;10.10;99.90
21678;DHT22;11000;50.360;7.582;2023-02-03T11:49:11;10.10;99.90
21678;DHT22;11000;50.360;7.582;2023-02-03T11:51:43;10.10;99.90
21678;DHT22;11000;50.360;7.582;2023-02-03T12:08:01;10.30;99.90
21678;DHT22;11000;50.360;7.582;2023-02-03T12:10:45;10.40;99.90
21678;DHT22;11000;50.360;7.582;2023-02-03T12:15:53;10.50;99.90
21678;DHT22;11000;50.360;7.582;2023-02-03T12:23:42;10.50;99.90
21678;DHT22;11000;50.360;7.582;2023-02-03T12:26:26;10.50;99.90
21678;DHT22;11000;50.360;7.582;2023-02-03T12:29:05;10.60;99.90
21678;DHT22;11000;50.360;7.582;2023-02-03T12:36:37;10.60;99.90
21678;DHT22;11000;50.360;7.582;2023-02-03T12:39:04;10.50;99.90
21678;DHT22;11000;50.360;7.582;2023-02-03T12:41:29;10.60;99.90
21678;DHT22;11000;50.360;7.582;2023-02-03T12:43:53;10.60;99.90
21678;DHT22;11000;50.360;7.582;2023-02-03T12:46:21;10.50;99.90
21678;DHT22;11000;50.360;7.582;2023-02-03T12:51:49;10.60;99.90
21678;DHT22;11000;50.360;7.582;2023-02-03T12:54:36;10.60;99.90
21678;DHT22;11000;50.360;7.582;2023-02-03T12:57:26;10.60;99.90
21678;DHT22;11000;50.360;7.582;2023-02-03T12:59:55;10.60;99.90
21678;DHT22;11000;50.360;7.582;2023-02-03T13:02:26;10.60;99.90
21678;DHT22;11000;50.360;7.582;2023-02-03T13:04:53;10.60;99.90
21678;DHT22;11000;50.360;7.582;2023-02-03T13:07:31;10.60;99.90
21678;DHT22;11000;50.360;7.582;2023-02-03T13:12:48;10.60;99.90
21678;DHT22;11000;50.360;7.582;2023-02-03T13:15:30;10.60;99.90
21678;DHT22;11000;50.360;7.582;2023-02-03T13:18:28;10.50;99.90
21678;DHT22;11000;50.360;7.582;2023-02-03T13:20:51;10.50;99.90
21678;DHT22;11000;50.360;7.582;2023-02-03T13:23:13;10.50;99.90
21678;DHT22;11000;50.360;7.582;2023-02-03T13:31:27;10.60;99.90
21678;DHT22;11000;50.360;7.582;2023-02-03T13:34:10;10.60;99.90
21678;DHT22;11000;50.360;7.582;2023-02-03T13:42:15;10.70;99.90
21678;DHT22;11000;50.360;7.582;2023-02-03T13:44:38;10.80;99.90
21678;DHT22;11000;50.360;7.582;2023-02-03T13:47:00;10.80;99.90
21678;DHT22;11000;50.360;7.582;2023-02-03T13:49:27;10.80;99.90
21678;DHT22;11000;50.360;7.582;2023-02-03T13:51:49;10.80;99.90
21678;DHT22;11000;50.360;7.582;2023-02-03T13:54:30;10.80;99.90
21678;DHT22;11000;50.360;7.582;2023-02-03T13:57:03;10.90;99.90
21678;DHT22;11000;50.360;7.582;2023-02-03T14:07:38;11.00;99.90
21678;DHT22;11000;50.360;7.582;2023-02-03T14:12:35;11.00;99.90
21678;DHT22;11000;50.360;7.582;2023-02-03T14:14:59;11.00;99.90
21678;DHT22;11000;50.360;7.582;2023-02-03T14:19:54;11.10;99.90
21678;DHT22;11000;50.360;7.582;2023-02-03T14:22:16;11.10;99.90
21678;DHT22;11000;50.360;7.582;2023-02-03T14:24:42;11.20;99.90
21678;DHT22;11000;50.360;7.582;2023-02-03T14:27:14;11.20;99.90
21678;DHT22;11000;50.360;7.582;2023-02-03T14:29:35;11.20;99.90
21678;DHT22;11000;50.360;7.582;2023-02-03T14:32:08;11.20;99.90
21678;DHT22;11000;50.360;7.582;2023-02-03T14:34:40;11.20;99.90
21678;DHT22;11000;50.360;7.582;2023-02-03T14:42:34;11.10;99.90
21678;DHT22;11000;50.360;7.582;2023-02-03T14:45:06;11.10;99.90
21678;DHT22;11000;50.360;7.582;2023-02-03T14:50:53;11.20;99.90
21678;DHT22;11000;50.360;7.582;2023-02-03T14:56:16;11.10;99.90
21678;DHT22;11000;50.360;7.582;2023-02-03T14:59:01;11.10;99.90
21678;DHT22;11000;50.360;7.582;2023-02-03T15:01:26;11.10;99.90
21678;DHT22;11000;50.360;7.582;2023-02-03T15:09:22;11.10;99.90
21678;DHT22;11000;50.360;7.582;2023-02-03T15:11:44;11.10;99.90
21678;DHT22;11000;50.360;7.582;2023-02-03T15:14:24;11.20;99.90
21678;DHT22;11000;50.360;7.582;2023-02-03T15:16:52;11.20;99.90
21678;DHT22;11000;50.360;7.582;2023-02-03T15:19:19;11.10;99.90
21678;DHT22;11000;50.360;7.582;2023-02-03T15:21:40;11.20;99.90
21678;DHT22;11000;50.360;7.582;2023-02-03T15:24:01;11.20;99.90
21678;DHT22;11000;50.360;7.582;2023-02-03T15:26:24;11.20;99.90
21678;DHT22;11000;50.360;7.582;2023-02-03T15:29:02;11.20;99.90
21678;DHT22;11000;50.360;7.582;2023-02-03T15:31:33;11.20;99.90
21678;DHT22;11000;50.360;7.582;2023-02-03T15:34:12;11.20;99.90
21678;DHT22;11000;50.360;7.582;2023-02-03T15:36:41;11.20;99.90
21678;DHT22;11000;50.360;7.582;2023-02-03T15:39:16;11.20;99.90
21678;DHT22;11000;50.360;7.582;2023-02-03T15:41:40;11.20;99.90
21678;DHT22;11000;50.360;7.582;2023-02-03T15:44:07;11.20;99.90
21678;DHT22;11000;50.360;7.582;2023-02-03T15:46:34;11.20;99.90
21678;DHT22;11000;50.360;7.582;2023-02-03T15:49:06;11.20;99.90
21678;DHT22;11000;50.360;7.582;2023-02-03T15:51:36;11.20;99.90
21678;DHT22;11000;50.360;7.582;2023-02-03T15:54:06;11.20;99.90
21678;DHT22;11000;50.360;7.582;2023-02-03T15:56:43;11.10;99.90
21678;DHT22;11000;50.360;7.582;2023-02-03T15:59:16;11.10;99.90
21678;DHT22;11000;50.360;7.582;2023-02-03T16:01:39;11.00;99.90
21678;DHT22;11000;50.360;7.582;2023-02-03T16:03:59;10.90;99.90
21678;DHT22;11000;50.360;7.582;2023-02-03T16:06:34;10.90;99.90
21678;DHT22;11000;50.360;7.582;2023-02-03T16:08:57;10.90;99.90
21678;DHT22;11000;50.360;7.582;2023-02-03T16:13:46;10.90;99.90
21678;DHT22;11000;50.360;7.582;2023-02-03T16:16:15;11.00;99.90
21678;DHT22;11000;50.360;7.582;2023-02-03T16:18:36;10.90;99.90
21678;DHT22;11000;50.360;7.582;2023-02-03T16:20:57;10.90;99.90
21678;DHT22;11000;50.360;7.582;2023-02-03T16:23:23;10.90;99.90
21678;DHT22;11000;50.360;7.582;2023-02-03T16:26:17;10.80;99.90
21678;DHT22;11000;50.360;7.582;2023-02-03T16:28:38;10.80;99.90
21678;DHT22;11000;50.360;7.582;2023-02-03T16:31:19;10.80;99.90
21678;DHT22;11000;50.360;7.582;2023-02-03T16:34:00;10.80;99.90
21678;DHT22;11000;50.360;7.582;2023-02-03T16:36:42;10.80;99.90
21678;DHT22;11000;50.360;7.582;2023-02-03T16:39:21;10.80;99.90
21678;DHT22;11000;50.360;7.582;2023-02-03T16:42:08;10.80;99.90
21678;DHT22;11000;50.360;7.582;2023-02-03T16:44:51;10.80;99.90
21678;DHT22;11000;50.360;7.582;2023-02-03T16:47:31;10.80;99.90
21678;DHT22;11000;50.360;7.582;2023-02-03T16:50:21;10.80;99.90
21678;DHT22;11000;50.360;7.582;2023-02-03T16:53:01;10.80;99.90
21678;DHT22;11000;50.360;7.582;2023-02-03T16:55:21;10.80;99.90
21678;DHT22;11000;50.360;7.582;2023-02-03T16:57:42;10.80;99.90
21678;DHT22;11000;50.360;7.582;2023-02-03T17:00:03;10.80;99.90
21678;DHT22;11000;50.360;7.582;2023-02-03T17:02:25;10.80;99.90
21678;DHT22;11000;50.360;7.582;2023-02-03T17:04:45;10.90;99.90
21678;DHT22;11000;50.360;7.582;2023-02-03T17:07:05;10.80;99.90
21678;DHT22;11000;50.360;7.582;2023-02-03T17:09:26;10.80;99.90
21678;DHT22;11000;50.360;7.582;2023-02-03T17:11:47;10.80;99.90
21678;DHT22;11000;50.360;7.582;2023-02-03T17:14:08;10.80;99.90
21678;DHT22;11000;50.360;7.582;2023-02-03T17:16:28;10.90;99.90
21678;DHT22;11000;50.360;7.582;2023-02-03T17:18:50;10.90;99.90
21678;DHT22;11000;50.360;7.582;2023-02-03T17:21:13;10.90;99.90